createdAt,value
2023-01-25T00:02:24.066Z,18.7
2023-01-25T00:17:33.515Z,13.6
2023-01-25T00:33:01.574Z,13
2023-01-25T00:48:11.506Z,15.2
2023-01-25T01:03:20.647Z,17.8
2023-01-25T01:23:26.376Z,18.1
2023-01-25T01:38:38.435Z,17.1
2023-01-25T01:53:47.895Z,16
2023-01-25T02:08:58.068Z,17.1
2023-01-25T02:24:08.108Z,15.7
2023-01-25T02:39:20.966Z,19.3
2023-01-25T02:54:30.719Z,20.1
2023-01-25T03:09:40.033Z,15.7
2023-01-25T03:24:49.219Z,18.9
2023-01-25T03:39:58.733Z,18.4
2023-01-25T03:55:09.762Z,13.3
2023-01-25T04:10:20.034Z,13.2
2023-01-25T04:25:30.724Z,15.8
2023-01-25T04:40:41.524Z,13.9
2023-01-25T04:55:51.518Z,13.3
2023-01-25T05:11:01.134Z,16.2
2023-01-25T05:26:11.146Z,18.4
2023-01-25T05:41:20.094Z,16.9
2023-01-25T05:56:29.367Z,14.1
2023-01-25T06:11:39.502Z,18.1
2023-01-25T06:26:48.352Z,25.4
2023-01-25T06:41:58.087Z,20.1
2023-01-25T06:57:07.477Z,21.9
2023-01-25T07:12:16.415Z,24.3
2023-01-25T07:27:25.539Z,44.2
2023-01-25T07:42:35.142Z,26.3
2023-01-25T07:57:45.204Z,25.9
2023-01-25T08:12:53.636Z,20.1
2023-01-25T08:28:03.072Z,21.9
2023-01-25T08:43:12.846Z,25.5
2023-01-25T08:58:22.721Z,25.4
2023-01-25T09:13:32.055Z,25.2
2023-01-25T09:28:41.693Z,28.9
2023-01-25T09:43:51.230Z,36.6
2023-01-25T09:59:00.601Z,31.8
2023-01-25T10:14:10.117Z,30
2023-01-25T10:29:19.278Z,24.8
2023-01-25T10:44:29.155Z,30.7
2023-01-25T10:59:38.903Z,26.8
2023-01-25T11:14:48.346Z,22.7
2023-01-25T11:29:57.823Z,21
2023-01-25T11:45:07.717Z,25.1
2023-01-25T12:00:17.356Z,23.8
2023-01-25T12:15:26.964Z,27.7
2023-01-25T12:30:36.911Z,27.4
2023-01-25T12:45:48.431Z,24.4
2023-01-25T13:00:57.262Z,29.5
2023-01-25T13:16:07.714Z,31.2
2023-01-25T13:31:17.486Z,27.9
2023-01-25T13:46:27.135Z,29
2023-01-25T14:01:36.711Z,25.5
2023-01-25T14:16:46.113Z,19.6
2023-01-25T14:31:55.907Z,21.2
2023-01-25T14:47:05.608Z,21.8
2023-01-25T15:02:14.474Z,26.5
2023-01-25T15:17:24.411Z,23
2023-01-25T15:32:34.658Z,27.5
2023-01-25T15:47:46.164Z,32.1
2023-01-25T16:02:55.468Z,31.8
2023-01-25T16:18:03.737Z,27.3
2023-01-25T16:33:18.904Z,33.8
2023-01-25T16:48:28.496Z,33.9
2023-01-25T17:03:37.416Z,28.9
2023-01-25T17:18:47.214Z,39
2023-01-25T17:33:57.360Z,35.8
2023-01-25T17:49:07.277Z,58.9
2023-01-25T18:04:16.787Z,40.3
2023-01-25T18:19:26.097Z,48.4
2023-01-25T18:34:35.048Z,39.7
2023-01-25T18:49:46.429Z,43.8
2023-01-25T19:04:56.088Z,42
2023-01-25T19:20:06.177Z,42
2023-01-25T19:35:15.001Z,36.7
2023-01-25T19:50:24.043Z,44.6
2023-01-25T20:05:33.394Z,45.7
2023-01-25T20:20:42.741Z,58.4
2023-01-25T20:35:52.764Z,44.6
2023-01-25T20:51:02.499Z,59.4
2023-01-25T21:06:10.804Z,63.2
2023-01-25T21:21:20.992Z,58.6
2023-01-25T21:36:30.255Z,64.4
2023-01-25T21:51:39.515Z,60.1
2023-01-25T22:06:49.318Z,65
2023-01-25T22:21:58.628Z,84.2
2023-01-25T22:37:08.142Z,88.3
2023-01-25T22:52:17.588Z,87.8
2023-01-25T23:07:26.886Z,83
2023-01-25T23:22:36.359Z,85.3
2023-01-25T23:37:46.640Z,90.4
2023-01-25T23:53:47.281Z,108.2
